RKJK/KUV METAR and TAF weather

Enter ICAO airport designator
Station Type Date Time Source
RKJK METAR 2021/07/28 20:56 UTC NOAA

RKJK 282056Z 10004KT 3SM BR OVC085 26/24 A2961 RMK AO2A SLP031 60000 T02560243 FZRANO CHINO RWY18 $


Station Type Date Time Source
RKJK Decoded METAR 2021/07/28 20:56 UTC NOAA

Kunsan Ab, Korea, South (RKJK) 35-55N 126-37E 10M
Jul 28, 2021 - 04:56 PM EDT / 2021.07.28 2056 UTC
Wind: from the E (100 degrees) at 5 MPH (4 KT):0
Visibility: 3 mile(s):0
Sky conditions: overcast
Weather: mist
Temperature: 78.1 F (25.6 C)
Dew Point: 75.7 F (24.3 C)
Relative Humidity: 92%
Pressure (altimeter): 29.61 in. Hg (1002 hPa)
ob: RKJK 282056Z 10004KT 3SM BR OVC085 26/24 A2961 RMK AO2A SLP031 60000 T02560243 FZRANO CHINO RWY18
cycle: 21

Station Type Date Time Source
RKJK TAF 2021/07/28 18:15 UTC NOAA

TAF TAF
AMD RKJK 281810Z 2818/2922 05003KT 4800 BR FEW030 BKN030 QNH2962INS
TEMPO 2818/2820 -SHRA FEW010 BKN025
BECMG 2819/2820 02006KT 4800 BR SCT030 BKN050 QNH2982INS WND 15005KT AFT 2822
BECMG 2900/2901 25008KT 9999 NSW FEW030 SCT050 QNH2956INS WND 32012KT AFT 2904
BECMG 2919/2920 25003KT 4800 BR FEW015 SCT025 QNH2957INS
TEMPO 2920/2922 3200 BR TX35/2906Z TN24/2821Z

Example: see airport list